sensor_id;sensor_type;location;lat;lon;timestamp;P1;durP1;ratioP1;P2;durP2;ratioP2
69008;SDS011;56065;52.472;13.380;2023-02-01T00:01:09;16.33;;;2.97;;
69008;SDS011;56065;52.472;13.380;2023-02-01T00:03:35;15.32;;;1.70;;
69008;SDS011;56065;52.472;13.380;2023-02-01T00:06:00;18.97;;;2.10;;
69008;SDS011;56065;52.472;13.380;2023-02-01T00:08:26;16.43;;;2.73;;
69008;SDS011;56065;52.472;13.380;2023-02-01T00:11:01;16.05;;;2.15;;
69008;SDS011;56065;52.472;13.380;2023-02-01T00:13:32;17.50;;;1.43;;
69008;SDS011;56065;52.472;13.380;2023-02-01T00:16:06;21.05;;;1.48;;
69008;SDS011;56065;52.472;13.380;2023-02-01T00:18:33;17.17;;;2.20;;
69008;SDS011;56065;52.472;13.380;2023-02-01T00:20:59;15.13;;;2.35;;
69008;SDS011;56065;52.472;13.380;2023-02-01T00:23:25;14.53;;;2.37;;
69008;SDS011;56065;52.472;13.380;2023-02-01T00:25:50;19.05;;;2.55;;
69008;SDS011;56065;52.472;13.380;2023-02-01T00:28:16;19.43;;;2.83;;
69008;SDS011;56065;52.472;13.380;2023-02-01T00:30:41;13.17;;;1.90;;
69008;SDS011;56065;52.472;13.380;2023-02-01T00:33:06;17.33;;;1.80;;
69008;SDS011;56065;52.472;13.380;2023-02-01T00:35:33;15.53;;;2.03;;
69008;SDS011;56065;52.472;13.380;2023-02-01T00:37:59;14.70;;;2.03;;
69008;SDS011;56065;52.472;13.380;2023-02-01T00:40:25;16.88;;;2.22;;
69008;SDS011;56065;52.472;13.380;2023-02-01T00:42:50;13.32;;;2.20;;
69008;SDS011;56065;52.472;13.380;2023-02-01T00:45:16;11.93;;;1.80;;
69008;SDS011;56065;52.472;13.380;2023-02-01T00:47:42;18.00;;;2.08;;
69008;SDS011;56065;52.472;13.380;2023-02-01T00:50:08;13.37;;;1.67;;
69008;SDS011;56065;52.472;13.380;2023-02-01T00:52:33;15.07;;;1.75;;
69008;SDS011;56065;52.472;13.380;2023-02-01T00:54:59;18.60;;;2.10;;
69008;SDS011;56065;52.472;13.380;2023-02-01T00:57:24;12.50;;;1.50;;
69008;SDS011;56065;52.472;13.380;2023-02-01T00:59:49;14.40;;;1.90;;
69008;SDS011;56065;52.472;13.380;2023-02-01T01:02:15;12.47;;;1.30;;
69008;SDS011;56065;52.472;13.380;2023-02-01T01:04:40;14.80;;;1.63;;
69008;SDS011;56065;52.472;13.380;2023-02-01T01:07:06;12.50;;;1.60;;
69008;SDS011;56065;52.472;13.380;2023-02-01T01:09:31;13.85;;;1.52;;
69008;SDS011;56065;52.472;13.380;2023-02-01T01:11:56;11.43;;;1.20;;
69008;SDS011;56065;52.472;13.380;2023-02-01T01:14:22;12.87;;;1.10;;
69008;SDS011;56065;52.472;13.380;2023-02-01T01:16:47;10.37;;;1.17;;
69008;SDS011;56065;52.472;13.380;2023-02-01T01:19:12;11.73;;;1.53;;
69008;SDS011;56065;52.472;13.380;2023-02-01T01:21:38;13.87;;;1.40;;
69008;SDS011;56065;52.472;13.380;2023-02-01T01:24:03;15.50;;;1.67;;
69008;SDS011;56065;52.472;13.380;2023-02-01T01:26:29;15.77;;;2.13;;
69008;SDS011;56065;52.472;13.380;2023-02-01T01:28:55;12.32;;;1.33;;
69008;SDS011;56065;52.472;13.380;2023-02-01T01:31:21;9.77;;;1.33;;
69008;SDS011;56065;52.472;13.380;2023-02-01T01:33:48;13.38;;;1.52;;
69008;SDS011;56065;52.472;13.380;2023-02-01T01:36:18;12.70;;;1.70;;
69008;SDS011;56065;52.472;13.380;2023-02-01T01:38:43;13.57;;;1.48;;
69008;SDS011;56065;52.472;13.380;2023-02-01T01:41:11;11.37;;;1.37;;
69008;SDS011;56065;52.472;13.380;2023-02-01T01:46:31;14.90;;;1.30;;
69008;SDS011;56065;52.472;13.380;2023-02-01T01:51:31;13.77;;;1.58;;
69008;SDS011;56065;52.472;13.380;2023-02-01T01:54:01;9.40;;;1.20;;
69008;SDS011;56065;52.472;13.380;2023-02-01T01:56:34;15.13;;;1.73;;
69008;SDS011;56065;52.472;13.380;2023-02-01T01:59:00;12.60;;;1.98;;
69008;SDS011;56065;52.472;13.380;2023-02-01T02:01:26;21.17;;;1.85;;
69008;SDS011;56065;52.472;13.380;2023-02-01T02:03:52;11.53;;;1.67;;
69008;SDS011;56065;52.472;13.380;2023-02-01T02:06:34;17.35;;;1.52;;
69008;SDS011;56065;52.472;13.380;2023-02-01T02:09:15;17.05;;;1.50;;
69008;SDS011;56065;52.472;13.380;2023-02-01T02:11:41;15.27;;;2.58;;
69008;SDS011;56065;52.472;13.380;2023-02-01T02:14:08;14.20;;;1.57;;
69008;SDS011;56065;52.472;13.380;2023-02-01T02:19:39;10.02;;;1.20;;
69008;SDS011;56065;52.472;13.380;2023-02-01T02:30:52;17.25;;;1.50;;
69008;SDS011;56065;52.472;13.380;2023-02-01T02:39:16;15.87;;;1.60;;
69008;SDS011;56065;52.472;13.380;2023-02-01T02:45:07;13.02;;;1.38;;
69008;SDS011;56065;52.472;13.380;2023-02-01T02:48:04;15.63;;;2.17;;
69008;SDS011;56065;52.472;13.380;2023-02-01T02:50:37;14.23;;;1.50;;
69008;SDS011;56065;52.472;13.380;2023-02-01T02:53:35;15.60;;;2.00;;
69008;SDS011;56065;52.472;13.380;2023-02-01T02:56:29;10.90;;;1.33;;
69008;SDS011;56065;52.472;13.380;2023-02-01T02:59:14;14.48;;;1.42;;
69008;SDS011;56065;52.472;13.380;2023-02-01T03:02:03;14.27;;;1.55;;
69008;SDS011;56065;52.472;13.380;2023-02-01T03:04:46;21.85;;;2.30;;
69008;SDS011;56065;52.472;13.380;2023-02-01T03:10:10;18.42;;;2.03;;
69008;SDS011;56065;52.472;13.380;2023-02-01T03:12:42;12.77;;;1.83;;
69008;SDS011;56065;52.472;13.380;2023-02-01T03:15:23;12.10;;;1.75;;
69008;SDS011;56065;52.472;13.380;2023-02-01T03:17:54;17.98;;;1.73;;
69008;SDS011;56065;52.472;13.380;2023-02-01T03:20:21;12.40;;;1.40;;
69008;SDS011;56065;52.472;13.380;2023-02-01T03:22:48;17.63;;;3.00;;
69008;SDS011;56065;52.472;13.380;2023-02-01T03:25:18;12.02;;;1.67;;
69008;SDS011;56065;52.472;13.380;2023-02-01T03:30:21;11.98;;;1.40;;
69008;SDS011;56065;52.472;13.380;2023-02-01T03:32:52;19.87;;;2.27;;
69008;SDS011;56065;52.472;13.380;2023-02-01T03:38:09;14.88;;;1.55;;
69008;SDS011;56065;52.472;13.380;2023-02-01T03:40:37;14.88;;;1.77;;
69008;SDS011;56065;52.472;13.380;2023-02-01T03:43:04;17.52;;;2.35;;
69008;SDS011;56065;52.472;13.380;2023-02-01T03:45:38;16.10;;;2.03;;
69008;SDS011;56065;52.472;13.380;2023-02-01T03:48:11;16.70;;;2.17;;
69008;SDS011;56065;52.472;13.380;2023-02-01T03:50:40;16.65;;;1.80;;
69008;SDS011;56065;52.472;13.380;2023-02-01T03:53:12;17.05;;;2.03;;
69008;SDS011;56065;52.472;13.380;2023-02-01T03:55:41;11.95;;;1.50;;
69008;SDS011;56065;52.472;13.380;2023-02-01T04:00:32;15.50;;;1.57;;
69008;SDS011;56065;52.472;13.380;2023-02-01T04:02:57;19.00;;;2.10;;
69008;SDS011;56065;52.472;13.380;2023-02-01T04:05:23;21.20;;;2.08;;
69008;SDS011;56065;52.472;13.380;2023-02-01T04:07:49;18.38;;;1.85;;
69008;SDS011;56065;52.472;13.380;2023-02-01T04:10:15;12.17;;;1.50;;
69008;SDS011;56065;52.472;13.380;2023-02-01T04:12:40;10.90;;;1.73;;
69008;SDS011;56065;52.472;13.380;2023-02-01T04:15:06;13.43;;;1.80;;
69008;SDS011;56065;52.472;13.380;2023-02-01T04:17:32;19.98;;;2.28;;
69008;SDS011;56065;52.472;13.380;2023-02-01T04:19:57;18.43;;;2.37;;
69008;SDS011;56065;52.472;13.380;2023-02-01T04:22:22;14.45;;;1.70;;
69008;SDS011;56065;52.472;13.380;2023-02-01T04:24:48;12.50;;;1.33;;
69008;SDS011;56065;52.472;13.380;2023-02-01T04:27:13;15.23;;;1.43;;
69008;SDS011;56065;52.472;13.380;2023-02-01T04:29:39;13.57;;;1.80;;
69008;SDS011;56065;52.472;13.380;2023-02-01T04:32:04;15.90;;;2.30;;
69008;SDS011;56065;52.472;13.380;2023-02-01T04:34:30;15.45;;;1.83;;
69008;SDS011;56065;52.472;13.380;2023-02-01T04:36:55;17.37;;;2.30;;
69008;SDS011;56065;52.472;13.380;2023-02-01T04:39:21;18.00;;;2.30;;
69008;SDS011;56065;52.472;13.380;2023-02-01T04:41:46;16.65;;;2.30;;
69008;SDS011;56065;52.472;13.380;2023-02-01T04:44:15;13.80;;;1.87;;
69008;SDS011;56065;52.472;13.380;2023-02-01T04:49:10;22.10;;;1.80;;
69008;SDS011;56065;52.472;13.380;2023-02-01T04:51:36;15.27;;;1.80;;
69008;SDS011;56065;52.472;13.380;2023-02-01T04:54:01;17.00;;;2.13;;
69008;SDS011;56065;52.472;13.380;2023-02-01T04:56:27;15.35;;;2.22;;
69008;SDS011;56065;52.472;13.380;2023-02-01T04:58:52;15.13;;;2.70;;
69008;SDS011;56065;52.472;13.380;2023-02-01T05:01:18;12.93;;;2.00;;
69008;SDS011;56065;52.472;13.380;2023-02-01T05:03:43;15.73;;;1.70;;
69008;SDS011;56065;52.472;13.380;2023-02-01T05:06:08;16.42;;;1.48;;
69008;SDS011;56065;52.472;13.380;2023-02-01T05:08:34;16.23;;;1.83;;
69008;SDS011;56065;52.472;13.380;2023-02-01T05:10:59;11.77;;;1.87;;
69008;SDS011;56065;52.472;13.380;2023-02-01T05:13:27;13.77;;;1.70;;
69008;SDS011;56065;52.472;13.380;2023-02-01T05:16:11;16.83;;;1.73;;
69008;SDS011;56065;52.472;13.380;2023-02-01T05:18:37;20.27;;;2.77;;
69008;SDS011;56065;52.472;13.380;2023-02-01T05:21:02;17.37;;;2.47;;
69008;SDS011;56065;52.472;13.380;2023-02-01T05:23:27;16.43;;;1.83;;
69008;SDS011;56065;52.472;13.380;2023-02-01T05:25:57;14.63;;;1.83;;
69008;SDS011;56065;52.472;13.380;2023-02-01T05:28:24;12.90;;;2.25;;
69008;SDS011;56065;52.472;13.380;2023-02-01T05:30:50;14.63;;;1.63;;
69008;SDS011;56065;52.472;13.380;2023-02-01T05:33:15;12.37;;;1.77;;
69008;SDS011;56065;52.472;13.380;2023-02-01T05:35:40;14.60;;;2.20;;
69008;SDS011;56065;52.472;13.380;2023-02-01T05:38:06;18.70;;;2.10;;
69008;SDS011;56065;52.472;13.380;2023-02-01T05:40:31;14.03;;;1.90;;
69008;SDS011;56065;52.472;13.380;2023-02-01T05:42:56;20.80;;;1.90;;
69008;SDS011;56065;52.472;13.380;2023-02-01T05:45:21;17.73;;;1.73;;
69008;SDS011;56065;52.472;13.380;2023-02-01T05:47:47;20.13;;;2.10;;
69008;SDS011;56065;52.472;13.380;2023-02-01T05:50:12;14.67;;;2.17;;
69008;SDS011;56065;52.472;13.380;2023-02-01T05:52:37;17.70;;;2.40;;
69008;SDS011;56065;52.472;13.380;2023-02-01T05:55:03;21.00;;;2.60;;
69008;SDS011;56065;52.472;13.380;2023-02-01T05:57:28;15.57;;;1.80;;
69008;SDS011;56065;52.472;13.380;2023-02-01T05:59:54;14.73;;;2.00;;
69008;SDS011;56065;52.472;13.380;2023-02-01T06:02:20;13.50;;;1.90;;
69008;SDS011;56065;52.472;13.380;2023-02-01T06:04:46;12.25;;;1.90;;
69008;SDS011;56065;52.472;13.380;2023-02-01T06:07:11;14.07;;;1.97;;
69008;SDS011;56065;52.472;13.380;2023-02-01T06:09:37;16.73;;;1.90;;
69008;SDS011;56065;52.472;13.380;2023-02-01T06:12:03;15.67;;;2.00;;
69008;SDS011;56065;52.472;13.380;2023-02-01T06:14:28;13.93;;;2.75;;
69008;SDS011;56065;52.472;13.380;2023-02-01T06:16:54;25.73;;;2.60;;
69008;SDS011;56065;52.472;13.380;2023-02-01T06:19:20;16.85;;;2.15;;
69008;SDS011;56065;52.472;13.380;2023-02-01T06:21:46;18.33;;;2.30;;
69008;SDS011;56065;52.472;13.380;2023-02-01T06:24:11;19.30;;;1.80;;
69008;SDS011;56065;52.472;13.380;2023-02-01T06:26:37;15.75;;;1.60;;
69008;SDS011;56065;52.472;13.380;2023-02-01T06:29:04;18.42;;;2.55;;
69008;SDS011;56065;52.472;13.380;2023-02-01T06:31:31;13.43;;;2.05;;
69008;SDS011;56065;52.472;13.380;2023-02-01T06:33:57;31.07;;;4.60;;
69008;SDS011;56065;52.472;13.380;2023-02-01T06:36:22;15.33;;;2.00;;
69008;SDS011;56065;52.472;13.380;2023-02-01T06:38:48;13.40;;;1.73;;
69008;SDS011;56065;52.472;13.380;2023-02-01T06:41:13;10.77;;;1.85;;
69008;SDS011;56065;52.472;13.380;2023-02-01T06:43:39;15.77;;;2.90;;
69008;SDS011;56065;52.472;13.380;2023-02-01T06:46:06;16.58;;;1.80;;
69008;SDS011;56065;52.472;13.380;2023-02-01T06:48:33;13.27;;;1.97;;
69008;SDS011;56065;52.472;13.380;2023-02-01T06:50:59;13.23;;;2.20;;
69008;SDS011;56065;52.472;13.380;2023-02-01T06:53:24;14.70;;;1.83;;
69008;SDS011;56065;52.472;13.380;2023-02-01T06:56:00;16.05;;;1.98;;
69008;SDS011;56065;52.472;13.380;2023-02-01T06:58:30;17.70;;;1.80;;
69008;SDS011;56065;52.472;13.380;2023-02-01T07:00:57;17.77;;;2.60;;
69008;SDS011;56065;52.472;13.380;2023-02-01T07:03:23;18.80;;;2.33;;
69008;SDS011;56065;52.472;13.380;2023-02-01T07:05:48;15.20;;;2.75;;
69008;SDS011;56065;52.472;13.380;2023-02-01T07:08:14;15.27;;;2.27;;
69008;SDS011;56065;52.472;13.380;2023-02-01T07:10:39;12.10;;;1.93;;
69008;SDS011;56065;52.472;13.380;2023-02-01T07:13:05;12.55;;;1.70;;
69008;SDS011;56065;52.472;13.380;2023-02-01T07:15:30;16.13;;;2.30;;
69008;SDS011;56065;52.472;13.380;2023-02-01T07:17:56;17.57;;;2.43;;
69008;SDS011;56065;52.472;13.380;2023-02-01T07:20:22;14.63;;;2.40;;
69008;SDS011;56065;52.472;13.380;2023-02-01T07:22:48;14.30;;;2.30;;
69008;SDS011;56065;52.472;13.380;2023-02-01T07:25:13;11.63;;;1.67;;
69008;SDS011;56065;52.472;13.380;2023-02-01T07:27:38;20.00;;;1.80;;
69008;SDS011;56065;52.472;13.380;2023-02-01T07:30:04;16.07;;;1.90;;
69008;SDS011;56065;52.472;13.380;2023-02-01T07:32:31;18.47;;;2.00;;
69008;SDS011;56065;52.472;13.380;2023-02-01T07:34:57;12.05;;;1.95;;
69008;SDS011;56065;52.472;13.380;2023-02-01T07:37:22;16.63;;;1.70;;
69008;SDS011;56065;52.472;13.380;2023-02-01T07:39:49;15.55;;;2.30;;
69008;SDS011;56065;52.472;13.380;2023-02-01T07:42:15;12.02;;;1.98;;
69008;SDS011;56065;52.472;13.380;2023-02-01T07:44:40;13.37;;;1.83;;
69008;SDS011;56065;52.472;13.380;2023-02-01T07:47:06;13.23;;;1.80;;
69008;SDS011;56065;52.472;13.380;2023-02-01T07:49:31;13.27;;;1.80;;
69008;SDS011;56065;52.472;13.380;2023-02-01T07:51:56;12.30;;;1.98;;
69008;SDS011;56065;52.472;13.380;2023-02-01T07:54:21;12.13;;;1.70;;
69008;SDS011;56065;52.472;13.380;2023-02-01T07:56:47;10.80;;;2.10;;
69008;SDS011;56065;52.472;13.380;2023-02-01T07:59:12;16.87;;;2.70;;
69008;SDS011;56065;52.472;13.380;2023-02-01T08:01:37;19.87;;;2.70;;
69008;SDS011;56065;52.472;13.380;2023-02-01T08:04:03;16.63;;;2.07;;
69008;SDS011;56065;52.472;13.380;2023-02-01T08:06:31;15.40;;;1.90;;
69008;SDS011;56065;52.472;13.380;2023-02-01T08:08:58;11.52;;;1.80;;
69008;SDS011;56065;52.472;13.380;2023-02-01T08:11:24;15.93;;;2.63;;
69008;SDS011;56065;52.472;13.380;2023-02-01T08:13:50;14.82;;;2.42;;
69008;SDS011;56065;52.472;13.380;2023-02-01T08:16:17;11.00;;;1.80;;
69008;SDS011;56065;52.472;13.380;2023-02-01T08:18:44;14.32;;;1.63;;
69008;SDS011;56065;52.472;13.380;2023-02-01T08:21:11;12.18;;;2.30;;
69008;SDS011;56065;52.472;13.380;2023-02-01T08:23:42;9.53;;;1.43;;
69008;SDS011;56065;52.472;13.380;2023-02-01T08:26:08;9.45;;;2.42;;
69008;SDS011;56065;52.472;13.380;2023-02-01T08:28:41;14.98;;;2.22;;
69008;SDS011;56065;52.472;13.380;2023-02-01T08:31:20;11.52;;;2.17;;
69008;SDS011;56065;52.472;13.380;2023-02-01T08:33:48;16.13;;;3.67;;
69008;SDS011;56065;52.472;13.380;2023-02-01T08:36:15;11.57;;;2.27;;
69008;SDS011;56065;52.472;13.380;2023-02-01T08:38:40;10.07;;;2.08;;
69008;SDS011;56065;52.472;13.380;2023-02-01T08:41:07;12.90;;;2.83;;
69008;SDS011;56065;52.472;13.380;2023-02-01T08:43:37;11.98;;;2.28;;
69008;SDS011;56065;52.472;13.380;2023-02-01T08:46:03;10.47;;;2.00;;
69008;SDS011;56065;52.472;13.380;2023-02-01T08:48:29;12.40;;;2.42;;
69008;SDS011;56065;52.472;13.380;2023-02-01T08:50:54;9.87;;;1.47;;
69008;SDS011;56065;52.472;13.380;2023-02-01T08:53:19;8.97;;;1.73;;
69008;SDS011;56065;52.472;13.380;2023-02-01T08:55:45;13.53;;;1.90;;
69008;SDS011;56065;52.472;13.380;2023-02-01T08:58:11;9.27;;;1.73;;
69008;SDS011;56065;52.472;13.380;2023-02-01T09:00:38;15.43;;;2.13;;
69008;SDS011;56065;52.472;13.380;2023-02-01T09:03:04;6.17;;;1.07;;
69008;SDS011;56065;52.472;13.380;2023-02-01T09:05:29;9.00;;;1.30;;
69008;SDS011;56065;52.472;13.380;2023-02-01T09:07:55;9.37;;;1.70;;
69008;SDS011;56065;52.472;13.380;2023-02-01T09:10:20;5.97;;;1.30;;
69008;SDS011;56065;52.472;13.380;2023-02-01T09:12:45;7.03;;;1.27;;
69008;SDS011;56065;52.472;13.380;2023-02-01T09:15:11;5.07;;;0.80;;
69008;SDS011;56065;52.472;13.380;2023-02-01T09:17:36;8.87;;;1.10;;
69008;SDS011;56065;52.472;13.380;2023-02-01T09:20:02;6.93;;;1.00;;
69008;SDS011;56065;52.472;13.380;2023-02-01T09:22:28;5.67;;;1.10;;
69008;SDS011;56065;52.472;13.380;2023-02-01T09:24:54;8.67;;;1.60;;
69008;SDS011;56065;52.472;13.380;2023-02-01T09:27:19;15.77;;;3.83;;
69008;SDS011;56065;52.472;13.380;2023-02-01T09:29:45;44.90;;;15.20;;
69008;SDS011;56065;52.472;13.380;2023-02-01T09:32:14;63.50;;;22.40;;
69008;SDS011;56065;52.472;13.380;2023-02-01T09:34:39;5.80;;;1.43;;
69008;SDS011;56065;52.472;13.380;2023-02-01T09:37:05;6.07;;;1.03;;
69008;SDS011;56065;52.472;13.380;2023-02-01T09:39:30;7.03;;;0.80;;
69008;SDS011;56065;52.472;13.380;2023-02-01T09:46:58;4.57;;;0.68;;
69008;SDS011;56065;52.472;13.380;2023-02-01T09:49:32;3.87;;;0.80;;
69008;SDS011;56065;52.472;13.380;2023-02-01T09:52:01;3.58;;;0.45;;
69008;SDS011;56065;52.472;13.380;2023-02-01T09:55:03;2.50;;;0.50;;
69008;SDS011;56065;52.472;13.380;2023-02-01T09:57:40;7.53;;;0.88;;
69008;SDS011;56065;52.472;13.380;2023-02-01T10:00:20;5.38;;;1.08;;
69008;SDS011;56065;52.472;13.380;2023-02-01T10:02:50;6.93;;;0.80;;
69008;SDS011;56065;52.472;13.380;2023-02-01T10:05:17;6.70;;;1.00;;
69008;SDS011;56065;52.472;13.380;2023-02-01T10:08:01;5.93;;;1.13;;
69008;SDS011;56065;52.472;13.380;2023-02-01T10:10:42;7.73;;;0.50;;
69008;SDS011;56065;52.472;13.380;2023-02-01T10:23:32;6.80;;;0.70;;
69008;SDS011;56065;52.472;13.380;2023-02-01T10:28:52;3.67;;;0.50;;
69008;SDS011;56065;52.472;13.380;2023-02-01T10:31:23;6.65;;;0.85;;
69008;SDS011;56065;52.472;13.380;2023-02-01T10:33:52;8.52;;;0.70;;
69008;SDS011;56065;52.472;13.380;2023-02-01T10:36:28;9.17;;;1.10;;
69008;SDS011;56065;52.472;13.380;2023-02-01T10:38:57;7.40;;;0.88;;
69008;SDS011;56065;52.472;13.380;2023-02-01T10:41:24;8.27;;;0.80;;
69008;SDS011;56065;52.472;13.380;2023-02-01T10:43:57;8.27;;;1.15;;
69008;SDS011;56065;52.472;13.380;2023-02-01T10:46:24;5.85;;;0.70;;
69008;SDS011;56065;52.472;13.380;2023-02-01T10:48:50;6.10;;;0.80;;
69008;SDS011;56065;52.472;13.380;2023-02-01T10:51:42;7.78;;;0.60;;
69008;SDS011;56065;52.472;13.380;2023-02-01T10:54:48;3.88;;;0.60;;
69008;SDS011;56065;52.472;13.380;2023-02-01T10:56:58;6.45;;;0.80;;
69008;SDS011;56065;52.472;13.380;2023-02-01T10:59:25;6.90;;;0.80;;
69008;SDS011;56065;52.472;13.380;2023-02-01T11:01:58;5.20;;;0.85;;
69008;SDS011;56065;52.472;13.380;2023-02-01T11:04:26;7.88;;;1.00;;
69008;SDS011;56065;52.472;13.380;2023-02-01T11:09:33;16.25;;;1.00;;
69008;SDS011;56065;52.472;13.380;2023-02-01T11:12:03;8.45;;;2.50;;
69008;SDS011;56065;52.472;13.380;2023-02-01T11:14:34;11.57;;;0.90;;
69008;SDS011;56065;52.472;13.380;2023-02-01T11:19:44;4.40;;;0.77;;
69008;SDS011;56065;52.472;13.380;2023-02-01T11:22:10;6.45;;;1.00;;
69008;SDS011;56065;52.472;13.380;2023-02-01T11:24:38;10.77;;;1.25;;
69008;SDS011;56065;52.472;13.380;2023-02-01T11:27:05;5.27;;;1.07;;
69008;SDS011;56065;52.472;13.380;2023-02-01T11:29:43;9.65;;;1.15;;
69008;SDS011;56065;52.472;13.380;2023-02-01T11:32:12;7.85;;;1.05;;
69008;SDS011;56065;52.472;13.380;2023-02-01T11:34:49;7.50;;;1.00;;
69008;SDS011;56065;52.472;13.380;2023-02-01T11:37:20;8.77;;;1.35;;
69008;SDS011;56065;52.472;13.380;2023-02-01T11:39:53;11.27;;;1.00;;
69008;SDS011;56065;52.472;13.380;2023-02-01T11:42:20;7.75;;;0.80;;
69008;SDS011;56065;52.472;13.380;2023-02-01T11:44:46;7.95;;;1.10;;
69008;SDS011;56065;52.472;13.380;2023-02-01T11:50:17;5.03;;;1.00;;
69008;SDS011;56065;52.472;13.380;2023-02-01T11:55:52;5.63;;;1.00;;
69008;SDS011;56065;52.472;13.380;2023-02-01T11:59:00;6.72;;;0.98;;
69008;SDS011;56065;52.472;13.380;2023-02-01T12:04:42;8.10;;;1.10;;
69008;SDS011;56065;52.472;13.380;2023-02-01T12:07:19;7.95;;;0.82;;
69008;SDS011;56065;52.472;13.380;2023-02-01T12:18:34;8.60;;;0.80;;
69008;SDS011;56065;52.472;13.380;2023-02-01T12:26:40;9.57;;;1.10;;
69008;SDS011;56065;52.472;13.380;2023-02-01T12:40:24;10.73;;;1.17;;
69008;SDS011;56065;52.472;13.380;2023-02-01T12:43:01;7.55;;;0.88;;
69008;SDS011;56065;52.472;13.380;2023-02-01T12:45:33;8.77;;;1.40;;
69008;SDS011;56065;52.472;13.380;2023-02-01T12:50:48;6.38;;;1.20;;
69008;SDS011;56065;52.472;13.380;2023-02-01T12:55:47;7.60;;;0.95;;
69008;SDS011;56065;52.472;13.380;2023-02-01T12:58:17;14.17;;;1.43;;
69008;SDS011;56065;52.472;13.380;2023-02-01T13:00:45;7.38;;;1.17;;
69008;SDS011;56065;52.472;13.380;2023-02-01T13:08:26;8.57;;;1.52;;
69008;SDS011;56065;52.472;13.380;2023-02-01T13:11:04;6.70;;;1.30;;
69008;SDS011;56065;52.472;13.380;2023-02-01T13:16:08;9.82;;;1.00;;
69008;SDS011;56065;52.472;13.380;2023-02-01T13:18:54;7.93;;;1.33;;
69008;SDS011;56065;52.472;13.380;2023-02-01T13:21:27;7.88;;;0.60;;
69008;SDS011;56065;52.472;13.380;2023-02-01T13:23:57;6.77;;;0.80;;
69008;SDS011;56065;52.472;13.380;2023-02-01T13:26:23;8.93;;;0.90;;
69008;SDS011;56065;52.472;13.380;2023-02-01T13:28:49;7.13;;;1.30;;
69008;SDS011;56065;52.472;13.380;2023-02-01T13:42:57;7.93;;;1.25;;
69008;SDS011;56065;52.472;13.380;2023-02-01T13:45:27;6.13;;;1.10;;
69008;SDS011;56065;52.472;13.380;2023-02-01T13:47:57;7.10;;;0.82;;
69008;SDS011;56065;52.472;13.380;2023-02-01T13:53:03;7.67;;;0.73;;
69008;SDS011;56065;52.472;13.380;2023-02-01T13:55:50;7.00;;;1.20;;
69008;SDS011;56065;52.472;13.380;2023-02-01T13:58:32;8.63;;;1.40;;
69008;SDS011;56065;52.472;13.380;2023-02-01T14:03:44;6.47;;;1.20;;
69008;SDS011;56065;52.472;13.380;2023-02-01T14:16:41;9.98;;;1.48;;
69008;SDS011;56065;52.472;13.380;2023-02-01T14:21:54;11.55;;;1.77;;
69008;SDS011;56065;52.472;13.380;2023-02-01T14:26:56;12.38;;;1.38;;
69008;SDS011;56065;52.472;13.380;2023-02-01T14:42:19;9.30;;;1.70;;
69008;SDS011;56065;52.472;13.380;2023-02-01T14:50:43;10.90;;;1.15;;
69008;SDS011;56065;52.472;13.380;2023-02-01T15:00:52;9.20;;;1.60;;
69008;SDS011;56065;52.472;13.380;2023-02-01T15:06:04;7.57;;;0.90;;
69008;SDS011;56065;52.472;13.380;2023-02-01T15:08:32;8.77;;;1.10;;
69008;SDS011;56065;52.472;13.380;2023-02-01T15:11:01;2.47;;;0.40;;
69008;SDS011;56065;52.472;13.380;2023-02-01T15:13:31;4.78;;;0.60;;
69008;SDS011;56065;52.472;13.380;2023-02-01T15:18:40;4.32;;;0.90;;
69008;SDS011;56065;52.472;13.380;2023-02-01T15:21:12;6.38;;;0.75;;
69008;SDS011;56065;52.472;13.380;2023-02-01T15:23:50;4.63;;;0.97;;
69008;SDS011;56065;52.472;13.380;2023-02-01T15:26:26;6.10;;;1.08;;
69008;SDS011;56065;52.472;13.380;2023-02-01T15:28:53;7.32;;;1.00;;
69008;SDS011;56065;52.472;13.380;2023-02-01T15:31:30;3.20;;;0.60;;
69008;SDS011;56065;52.472;13.380;2023-02-01T15:33:57;7.88;;;0.80;;
69008;SDS011;56065;52.472;13.380;2023-02-01T15:36:23;5.27;;;0.90;;
69008;SDS011;56065;52.472;13.380;2023-02-01T15:39:11;6.78;;;1.38;;
69008;SDS011;56065;52.472;13.380;2023-02-01T15:41:43;5.13;;;0.90;;
69008;SDS011;56065;52.472;13.380;2023-02-01T15:44:29;4.97;;;0.60;;
69008;SDS011;56065;52.472;13.380;2023-02-01T15:47:08;5.22;;;0.52;;
69008;SDS011;56065;52.472;13.380;2023-02-01T15:49:41;5.18;;;0.80;;
69008;SDS011;56065;52.472;13.380;2023-02-01T15:52:23;4.65;;;0.88;;
69008;SDS011;56065;52.472;13.380;2023-02-01T15:54:54;5.63;;;1.00;;
69008;SDS011;56065;52.472;13.380;2023-02-01T15:57:22;7.30;;;0.83;;
69008;SDS011;56065;52.472;13.380;2023-02-01T15:59:55;3.20;;;0.85;;
69008;SDS011;56065;52.472;13.380;2023-02-01T16:04:58;6.18;;;0.93;;
69008;SDS011;56065;52.472;13.380;2023-02-01T16:07:28;5.27;;;1.20;;
69008;SDS011;56065;52.472;13.380;2023-02-01T16:09:56;4.75;;;1.05;;
69008;SDS011;56065;52.472;13.380;2023-02-01T16:14:55;5.38;;;0.85;;
69008;SDS011;56065;52.472;13.380;2023-02-01T16:17:20;1.70;;;0.43;;
69008;SDS011;56065;52.472;13.380;2023-02-01T16:19:52;3.83;;;0.65;;
69008;SDS011;56065;52.472;13.380;2023-02-01T16:22:22;3.10;;;0.38;;
69008;SDS011;56065;52.472;13.380;2023-02-01T16:24:47;3.33;;;0.50;;
69008;SDS011;56065;52.472;13.380;2023-02-01T16:27:13;3.17;;;0.30;;
69008;SDS011;56065;52.472;13.380;2023-02-01T16:29:38;4.07;;;0.40;;
69008;SDS011;56065;52.472;13.380;2023-02-01T16:32:04;2.92;;;0.40;;
69008;SDS011;56065;52.472;13.380;2023-02-01T16:34:29;0.77;;;0.20;;
69008;SDS011;56065;52.472;13.380;2023-02-01T16:36:55;1.98;;;0.22;;
69008;SDS011;56065;52.472;13.380;2023-02-01T16:39:22;5.53;;;0.60;;
69008;SDS011;56065;52.472;13.380;2023-02-01T16:41:48;1.63;;;0.20;;
69008;SDS011;56065;52.472;13.380;2023-02-01T16:44:17;1.90;;;0.30;;
69008;SDS011;56065;52.472;13.380;2023-02-01T16:46:46;2.95;;;0.20;;
69008;SDS011;56065;52.472;13.380;2023-02-01T16:49:20;3.53;;;0.40;;
69008;SDS011;56065;52.472;13.380;2023-02-01T16:51:47;0.85;;;0.20;;
69008;SDS011;56065;52.472;13.380;2023-02-01T16:54:14;3.00;;;0.20;;
69008;SDS011;56065;52.472;13.380;2023-02-01T16:56:39;1.58;;;0.20;;
69008;SDS011;56065;52.472;13.380;2023-02-01T16:59:07;2.23;;;0.70;;
69008;SDS011;56065;52.472;13.380;2023-02-01T17:01:33;5.95;;;0.30;;
69008;SDS011;56065;52.472;13.380;2023-02-01T17:04:01;2.00;;;0.40;;
69008;SDS011;56065;52.472;13.380;2023-02-01T17:06:27;5.47;;;0.30;;
69008;SDS011;56065;52.472;13.380;2023-02-01T17:08:55;1.73;;;0.40;;
69008;SDS011;56065;52.472;13.380;2023-02-01T17:11:25;2.33;;;0.32;;
69008;SDS011;56065;52.472;13.380;2023-02-01T17:13:51;2.70;;;0.47;;
69008;SDS011;56065;52.472;13.380;2023-02-01T17:18:52;3.85;;;0.40;;
69008;SDS011;56065;52.472;13.380;2023-02-01T17:21:20;2.72;;;0.45;;
69008;SDS011;56065;52.472;13.380;2023-02-01T17:23:46;3.47;;;0.50;;
69008;SDS011;56065;52.472;13.380;2023-02-01T17:26:11;3.85;;;0.40;;
69008;SDS011;56065;52.472;13.380;2023-02-01T17:28:37;4.03;;;0.70;;
69008;SDS011;56065;52.472;13.380;2023-02-01T17:31:02;9.63;;;0.60;;
69008;SDS011;56065;52.472;13.380;2023-02-01T17:33:33;3.30;;;0.40;;
69008;SDS011;56065;52.472;13.380;2023-02-01T17:36:00;4.10;;;0.47;;
69008;SDS011;56065;52.472;13.380;2023-02-01T17:38:26;5.00;;;0.40;;